Time;durP1;ratioP1;P1;durP2;ratioP2;P2;SDS_P1;SDS_P2;PMS_P1;PMS_P2;Temp;Humidity;BMP_temperature;BMP_pressure;BME280_temperature;BME280_humidity;BME280_pressure;Samples;Min_cycle;Max_cycle;Signal;HPM_P1;HPM_P2
2023/10/23 00:00:29;;;;;;;0.50;0.50;;;;;;;9.99;100.00;99857.75;5086938;28;20047;-66
2023/10/23 00:02:55;;;;;;;0.60;0.60;;;;;;;9.92;100.00;99850.91;5085971;28;20131;-66
2023/10/23 00:05:20;;;;;;;0.60;0.60;;;;;;;9.88;100.00;99862.56;5069434;28;20090;-65
2023/10/23 00:07:45;;;;;;;0.60;0.60;;;;;;;9.87;100.00;99863.47;5081104;28;20024;-66
2023/10/23 00:10:11;;;;;;;0.60;0.60;;;;;;;9.90;100.00;99863.38;5084462;28;20388;-65
2023/10/23 00:12:36;;;;;;;0.60;0.60;;;;;;;9.91;100.00;99870.44;5068510;28;20048;-66
2023/10/23 00:15:02;;;;;;;0.60;0.60;;;;;;;9.89;100.00;99871.38;5077367;28;20028;-66
2023/10/23 00:17:28;;;;;;;0.60;0.60;;;;;;;9.86;100.00;99869.72;5088535;28;20031;-65
2023/10/23 00:19:53;;;;;;;0.60;0.60;;;;;;;9.80;100.00;99866.38;5081540;28;20638;-66
2023/10/23 00:22:18;;;;;;;0.70;0.70;;;;;;;9.80;100.00;99869.03;5074740;28;20444;-65
2023/10/23 00:24:44;;;;;;;0.60;0.60;;;;;;;9.79;100.00;99867.28;5091250;28;20032;-64
2023/10/23 00:27:09;;;;;;;0.70;0.70;;;;;;;9.77;100.00;99871.81;5076348;28;20028;-65
2023/10/23 00:29:35;;;;;;;0.60;0.60;;;;;;;9.77;100.00;99870.00;5070085;28;20120;-66
2023/10/23 00:32:00;;;;;;;0.70;0.70;;;;;;;9.69;100.00;99861.41;5071839;28;20467;-64
2023/10/23 00:34:25;;;;;;;0.70;0.70;;;;;;;9.71;100.00;99862.22;5085284;28;20036;-65
2023/10/23 00:36:51;;;;;;;0.60;0.60;;;;;;;9.69;100.00;99861.41;5089850;28;20068;-65
2023/10/23 00:39:16;;;;;;;0.60;0.60;;;;;;;9.69;100.00;99856.09;5074751;28;20115;-64
2023/10/23 00:41:44;;;;;;;0.70;0.70;;;;;;;9.64;100.00;99863.31;5070803;28;20028;-65
2023/10/23 00:44:09;;;;;;;0.60;0.60;;;;;;;9.55;100.00;99868.06;5074709;28;20024;-66
2023/10/23 00:46:35;;;;;;;0.63;0.63;;;;;;;9.53;100.00;99865.44;5071410;28;20042;-65
2023/10/23 00:49:01;;;;;;;0.70;0.70;;;;;;;9.52;100.00;99868.16;5071177;28;20025;-65
2023/10/23 00:51:27;;;;;;;0.60;0.60;;;;;;;9.51;100.00;99867.28;5071243;28;20028;-65
2023/10/23 00:53:54;;;;;;;0.60;0.60;;;;;;;9.50;100.00;99859.38;5075164;28;20040;-64
2023/10/23 00:56:19;;;;;;;0.60;0.60;;;;;;;9.50;100.00;99864.69;5090088;28;20024;-65
2023/10/23 00:58:45;;;;;;;0.60;0.60;;;;;;;9.53;100.00;99868.09;5088438;28;20152;-65
2023/10/23 01:01:12;;;;;;;0.60;0.60;;;;;;;9.51;100.00;99858.44;5073447;28;20476;-64
2023/10/23 01:03:42;;;;;;;0.60;0.60;;;;;;;9.44;100.00;99855.09;5071317;28;20514;-65
2023/10/23 01:06:09;;;;;;;0.60;0.60;;;;;;;9.43;100.00;99864.00;5070957;28;20039;-65
2023/10/23 01:08:34;;;;;;;0.60;0.60;;;;;;;9.44;100.00;99865.72;5087888;28;20067;-64
2023/10/23 01:11:00;;;;;;;0.60;0.60;;;;;;;9.37;100.00;99864.19;5090387;28;20440;-65
2023/10/23 01:13:26;;;;;;;0.70;0.70;;;;;;;9.38;100.00;99865.91;5082602;28;20051;-65
2023/10/23 01:15:52;;;;;;;0.60;0.60;;;;;;;9.39;100.00;99861.50;5069982;28;20031;-65
2023/10/23 01:18:18;;;;;;;0.60;0.60;;;;;;;9.36;100.00;99865.09;5070927;28;20135;-63
2023/10/23 01:20:44;;;;;;;0.70;0.70;;;;;;;9.39;100.00;99872.94;5084496;28;20527;-65
2023/10/23 01:23:10;;;;;;;0.70;0.70;;;;;;;9.38;100.00;99871.22;5089363;28;20028;-65
2023/10/23 01:25:36;;;;;;;0.70;0.70;;;;;;;9.38;100.00;99865.03;5088052;28;20538;-64
2023/10/23 01:28:02;;;;;;;0.70;0.70;;;;;;;9.33;100.00;99865.19;5070782;28;20028;-65
2023/10/23 01:30:28;;;;;;;0.60;0.60;;;;;;;9.31;100.00;99864.34;5070127;28;20029;-65
2023/10/23 01:32:53;;;;;;;0.60;0.60;;;;;;;9.25;100.00;99860.13;5080524;28;20020;-65
2023/10/23 01:35:19;;;;;;;0.60;0.60;;;;;;;9.19;100.00;99857.63;5090592;28;20032;-64
2023/10/23 01:37:45;;;;;;;0.70;0.70;;;;;;;9.19;100.00;99867.41;5090397;28;20028;-65
2023/10/23 01:40:11;;;;;;;0.60;0.60;;;;;;;9.16;100.00;99860.38;5086407;28;20032;-64
2023/10/23 01:42:37;;;;;;;0.70;0.70;;;;;;;9.13;100.00;99855.16;5071579;28;20040;-65
2023/10/23 01:45:03;;;;;;;0.68;0.68;;;;;;;9.13;100.00;99851.63;5089638;28;20088;-65
2023/10/23 01:47:28;;;;;;;0.70;0.70;;;;;;;9.11;100.00;99850.81;5072091;28;20047;-65
2023/10/23 01:49:54;;;;;;;0.60;0.60;;;;;;;9.04;100.00;99847.47;5069633;28;20033;-65
2023/10/23 01:52:19;;;;;;;0.70;0.70;;;;;;;9.03;100.00;99848.38;5073323;28;20036;-65
2023/10/23 01:54:45;;;;;;;0.70;0.70;;;;;;;8.96;100.00;99851.28;5090629;28;20069;-65
2023/10/23 01:57:12;;;;;;;0.70;0.70;;;;;;;8.93;100.00;99846.91;5089679;28;20498;-65
2023/10/23 01:59:38;;;;;;;0.70;0.70;;;;;;;8.91;100.00;99846.06;5072454;28;20036;-64
2023/10/23 02:02:03;;;;;;;0.70;0.70;;;;;;;8.82;100.00;99843.69;5073056;28;20037;-65
2023/10/23 02:04:29;;;;;;;0.70;0.70;;;;;;;8.87;100.00;99851.50;5080885;28;20081;-66
2023/10/23 02:06:55;;;;;;;0.70;0.70;;;;;;;8.84;100.00;99854.25;5070043;28;20033;-66
2023/10/23 02:09:21;;;;;;;0.70;0.70;;;;;;;8.82;100.00;99845.47;5079386;28;20055;-66
2023/10/23 02:11:46;;;;;;;0.70;0.70;;;;;;;8.80;100.00;99856.13;5071163;28;20053;-66
2023/10/23 02:14:12;;;;;;;0.80;0.80;;;;;;;8.77;100.00;99850.91;5084979;28;20388;-67
2023/10/23 02:16:37;;;;;;;0.70;0.70;;;;;;;8.77;100.00;99852.69;5089083;28;20027;-67
2023/10/23 02:19:03;;;;;;;0.70;0.70;;;;;;;8.77;100.00;99852.69;5085609;28;20090;-67
2023/10/23 02:21:29;;;;;;;0.70;0.70;;;;;;;8.76;100.00;99859.78;5068421;28;20067;-67
2023/10/23 02:23:54;;;;;;;0.70;0.70;;;;;;;8.74;100.00;99851.00;5064648;28;20460;-66
2023/10/23 02:26:20;;;;;;;0.70;0.70;;;;;;;8.72;100.00;99841.34;5081856;28;20031;-66
2023/10/23 02:28:45;;;;;;;0.63;0.63;;;;;;;8.84;100.00;99846.31;5068544;28;20120;-66
2023/10/23 02:31:10;;;;;;;0.70;0.70;;;;;;;8.83;100.00;99849.88;5069517;28;20036;-67
2023/10/23 02:33:36;;;;;;;0.70;0.70;;;;;;;8.83;100.00;99844.56;5077502;28;20441;-66
2023/10/23 02:36:02;;;;;;;0.70;0.70;;;;;;;8.83;100.00;99847.22;5079203;28;20037;-64
2023/10/23 02:38:27;;;;;;;0.60;0.60;;;;;;;8.85;100.00;99838.31;5069490;28;20031;-64
2023/10/23 02:40:53;;;;;;;0.60;0.60;;;;;;;8.83;100.00;99844.56;5071863;28;20028;-65
2023/10/23 02:43:19;;;;;;;0.70;0.70;;;;;;;8.75;100.00;99828.88;5067799;28;20082;-66
2023/10/23 02:45:45;;;;;;;0.70;0.70;;;;;;;8.82;100.00;99840.16;5049356;28;20372;-66
2023/10/23 02:48:10;;;;;;;0.70;0.70;;;;;;;8.79;100.00;99854.41;5080973;28;20056;-67
2023/10/23 02:50:36;;;;;;;0.80;0.80;;;;;;;8.69;100.00;99838.78;5087108;28;20508;-67
2023/10/23 02:53:01;;;;;;;0.70;0.70;;;;;;;8.72;100.00;99846.63;5088026;28;20023;-67
2023/10/23 02:55:27;;;;;;;0.70;0.70;;;;;;;8.68;100.00;99850.31;5087668;28;20396;-68
2023/10/23 02:57:53;;;;;;;0.80;0.80;;;;;;;8.65;100.00;99848.59;5085819;28;20028;-68
2023/10/23 03:00:21;;;;;;;0.70;0.70;;;;;;;8.69;100.00;99837.00;5089062;28;20471;-67
2023/10/23 03:02:47;;;;;;;0.60;0.60;;;;;;;8.73;100.00;99845.75;5085476;28;20036;-68
2023/10/23 03:05:14;;;;;;;0.77;0.77;;;;;;;8.73;100.00;99828.03;5089610;28;20114;-67
2023/10/23 03:07:39;;;;;;;0.70;0.70;;;;;;;8.75;100.00;99827.97;5086073;28;20115;-66
2023/10/23 03:10:05;;;;;;;0.70;0.70;;;;;;;8.87;100.00;99836.47;5068524;28;20034;-67
2023/10/23 03:12:31;;;;;;;0.70;0.70;;;;;;;8.93;100.00;99828.34;5058897;28;20052;-68
2023/10/23 03:14:56;;;;;;;0.60;0.60;;;;;;;8.95;100.00;99826.53;5067772;28;20357;-67
2023/10/23 03:17:22;;;;;;;0.70;0.70;;;;;;;8.99;100.00;99822.88;5059519;28;20102;-66
2023/10/23 03:19:47;;;;;;;0.70;0.70;;;;;;;8.99;100.00;99824.66;5048130;28;20021;-68
2023/10/23 03:22:13;;;;;;;0.70;0.70;;;;;;;8.93;100.00;99825.69;5047837;28;20025;-67
2023/10/23 03:24:38;;;;;;;0.70;0.70;;;;;;;8.85;100.00;99821.50;5068025;28;20040;-67
2023/10/23 03:27:04;;;;;;;0.70;0.70;;;;;;;8.79;100.00;99825.22;5061372;28;20107;-67
2023/10/23 03:29:30;;;;;;;0.80;0.80;;;;;;;8.73;100.00;99838.63;5069011;28;20442;-67
2023/10/23 03:31:55;;;;;;;0.70;0.70;;;;;;;8.71;100.00;99815.75;5069004;28;20021;-67
2023/10/23 03:34:21;;;;;;;0.70;0.70;;;;;;;8.74;100.00;99828.91;5068873;28;20040;-66
2023/10/23 03:36:46;;;;;;;0.70;0.70;;;;;;;8.72;100.00;99822.78;5055730;28;20036;-66
2023/10/23 03:39:12;;;;;;;0.70;0.70;;;;;;;8.59;100.00;99818.72;5068827;28;20106;-67
2023/10/23 03:41:37;;;;;;;0.70;0.70;;;;;;;8.61;100.00;99825.75;5068993;28;20039;-67
2023/10/23 03:44:03;;;;;;;0.70;0.70;;;;;;;8.58;100.00;99828.44;5066946;28;20028;-67
2023/10/23 03:46:29;;;;;;;0.70;0.70;;;;;;;8.56;100.00;99821.47;5059628;28;20492;-66
2023/10/23 03:48:56;;;;;;;0.70;0.70;;;;;;;8.50;100.00;99819.00;5048637;28;20037;-67
2023/10/23 03:51:21;;;;;;;0.80;0.80;;;;;;;8.47;100.00;99819.06;5048635;28;20027;-67
2023/10/23 03:53:47;;;;;;;0.70;0.70;;;;;;;8.45;100.00;99820.91;5062015;28;20024;-66
2023/10/23 03:56:12;;;;;;;0.80;0.80;;;;;;;8.49;100.00;99827.84;5070798;28;20111;-62
2023/10/23 03:58:38;;;;;;;0.70;0.70;;;;;;;8.48;100.00;99826.13;5072308;28;20404;-62
2023/10/23 04:01:03;;;;;;;0.80;0.80;;;;;;;8.38;100.00;99824.63;5072157;28;20028;-61
2023/10/23 04:03:28;;;;;;;0.75;0.75;;;;;;;8.34;100.00;99812.34;5072307;28;20047;-62
2023/10/23 04:05:54;;;;;;;0.70;0.70;;;;;;;8.32;100.00;99808.91;5067430;28;20420;-62
2023/10/23 04:08:19;;;;;;;0.80;0.80;;;;;;;8.30;100.00;99805.41;5070006;28;20020;-61
2023/10/23 04:10:46;;;;;;;0.80;0.80;;;;;;;8.35;100.00;99806.16;5061701;28;20037;-63
2023/10/23 04:13:12;;;;;;;0.70;0.70;;;;;;;8.32;100.00;99795.66;5082063;28;20181;-62
2023/10/23 04:15:38;;;;;;;0.80;0.80;;;;;;;8.43;100.00;99812.13;5088538;28;20379;-62
2023/10/23 04:18:03;;;;;;;0.70;0.70;;;;;;;8.51;100.00;99810.13;5069907;28;20028;-62
2023/10/23 04:20:29;;;;;;;0.70;0.70;;;;;;;8.57;100.00;99802.00;5070725;28;20721;-62
2023/10/23 04:22:54;;;;;;;0.80;0.80;;;;;;;8.64;100.00;99803.56;5077764;28;20024;-62
2023/10/23 04:25:20;;;;;;;0.70;0.70;;;;;;;8.67;100.00;99798.16;5086376;28;20032;-62
2023/10/23 04:27:45;;;;;;;0.70;0.70;;;;;;;8.68;100.00;99787.53;5071601;28;20117;-62
2023/10/23 04:30:11;;;;;;;0.80;0.80;;;;;;;8.68;100.00;99792.81;5071401;28;20024;-63
2023/10/23 04:32:37;;;;;;;0.80;0.80;;;;;;;8.65;100.00;99790.25;5070260;28;20525;-61
2023/10/23 04:35:02;;;;;;;0.80;0.80;;;;;;;8.62;100.00;99789.47;5090005;28;20036;-62
2023/10/23 04:37:28;;;;;;;0.70;0.70;;;;;;;8.63;100.00;99793.88;5071841;28;20038;-62
2023/10/23 04:39:53;;;;;;;0.80;0.80;;;;;;;8.62;100.00;99781.53;5071691;28;20025;-62
2023/10/23 04:42:19;;;;;;;0.80;0.80;;;;;;;8.57;100.00;99788.75;5071553;28;20110;-62
2023/10/23 04:44:48;;;;;;;0.80;0.80;;;;;;;8.58;100.00;99788.69;5073937;28;20039;-63
2023/10/23 04:47:13;;;;;;;0.73;0.73;;;;;;;8.60;100.00;99778.91;5071490;28;20036;-62
2023/10/23 04:49:39;;;;;;;0.70;0.70;;;;;;;8.59;100.00;99768.38;5071239;28;20029;-62
2023/10/23 04:52:04;;;;;;;0.80;0.80;;;;;;;8.64;100.00;99780.59;5084779;28;20024;-62
2023/10/23 04:54:30;;;;;;;0.80;0.80;;;;;;;8.63;100.00;99777.97;5090571;28;20498;-63
2023/10/23 04:56:55;;;;;;;0.80;0.80;;;;;;;8.61;100.00;99771.84;5086235;28;20028;-62
2023/10/23 04:59:20;;;;;;;0.70;0.70;;;;;;;8.58;100.00;99772.78;5081897;28;20416;-63
2023/10/23 05:01:46;;;;;;;0.80;0.80;;;;;;;8.55;100.00;99764.94;5060400;28;20039;-62
2023/10/23 05:04:12;;;;;;;0.70;0.70;;;;;;;8.52;100.00;99753.53;5069436;28;20113;-63
2023/10/23 05:06:37;;;;;;;0.70;0.70;;;;;;;8.49;100.00;99758.94;5071660;28;20029;-61
2023/10/23 05:09:04;;;;;;;0.70;0.70;;;;;;;8.44;100.00;99760.84;5069876;28;20028;-62
2023/10/23 05:11:30;;;;;;;0.70;0.70;;;;;;;8.40;100.00;99773.31;5069967;28;20106;-62
2023/10/23 05:13:55;;;;;;;0.60;0.60;;;;;;;8.34;100.00;99775.25;5054296;28;20032;-62
2023/10/23 05:16:21;;;;;;;0.80;0.80;;;;;;;8.20;100.00;99780.03;5070964;28;20028;-63
2023/10/23 05:18:47;;;;;;;0.70;0.70;;;;;;;8.19;100.00;99778.31;5090473;28;20371;-62
2023/10/23 05:21:12;;;;;;;0.80;0.80;;;;;;;8.19;100.00;99783.63;5090218;28;20063;-62
2023/10/23 05:23:40;;;;;;;0.80;0.80;;;;;;;8.22;100.00;99783.53;5086495;28;20438;-61
2023/10/23 05:26:06;;;;;;;0.73;0.73;;;;;;;8.27;100.00;99773.72;5090515;28;20020;-62
2023/10/23 05:28:31;;;;;;;0.80;0.80;;;;;;;8.28;100.00;99780.72;5081479;28;20476;-62
2023/10/23 05:30:57;;;;;;;0.80;0.80;;;;;;;8.25;100.00;99772.88;5070814;28;20051;-62
2023/10/23 05:33:23;;;;;;;0.70;0.70;;;;;;;8.21;100.00;99779.13;5070854;28;20082;-62
2023/10/23 05:35:48;;;;;;;0.70;0.70;;;;;;;8.20;100.00;99769.44;5072316;28;20119;-62
2023/10/23 05:38:14;;;;;;;0.60;0.60;;;;;;;8.17;100.00;99769.53;5069521;28;20077;-62
2023/10/23 05:40:39;;;;;;;0.80;0.80;;;;;;;8.07;100.00;99765.38;5069642;28;20024;-63
2023/10/23 05:43:05;;;;;;;0.80;0.80;;;;;;;7.98;100.00;99759.44;5072230;28;20353;-62
2023/10/23 05:45:30;;;;;;;0.80;0.80;;;;;;;7.96;100.00;99766.53;5074262;28;20036;-62
2023/10/23 05:47:55;;;;;;;0.70;0.70;;;;;;;7.93;100.00;99758.69;5089599;28;20411;-62
2023/10/23 05:50:21;;;;;;;0.70;0.70;;;;;;;7.92;100.00;99761.38;5085952;28;20027;-62
2023/10/23 05:52:46;;;;;;;0.70;0.70;;;;;;;7.91;100.00;99755.19;5090387;28;20495;-62
2023/10/23 05:55:11;;;;;;;0.70;0.70;;;;;;;7.91;100.00;99754.31;5082435;28;20100;-62
2023/10/23 05:57:37;;;;;;;0.80;0.80;;;;;;;7.88;100.00;99765.88;5078728;28;20028;-62
2023/10/23 06:00:08;;;;;;;0.70;0.70;;;;;;;7.86;100.00;99762.38;5088312;28;20105;-62
2023/10/23 06:02:34;;;;;;;0.80;0.80;;;;;;;7.84;100.00;99758.91;5088050;28;20391;-62
2023/10/23 06:05:00;;;;;;;0.70;0.70;;;;;;;7.87;100.00;99761.47;5077425;28;20030;-61
2023/10/23 06:07:25;;;;;;;0.60;0.60;;;;;;;7.88;100.00;99760.56;5088149;28;20107;-62
2023/10/23 06:09:51;;;;;;;0.82;0.82;;;;;;;7.89;100.00;99762.28;5067218;28;20125;-61
2023/10/23 06:12:17;;;;;;;0.70;0.70;;;;;;;7.87;100.00;99747.38;5071115;28;20056;-62
2023/10/23 06:14:43;;;;;;;0.80;0.80;;;;;;;7.98;100.00;99764.72;5088685;28;20035;-62
2023/10/23 06:17:08;;;;;;;0.80;0.80;;;;;;;8.00;100.00;99760.25;5071387;28;20024;-62
2023/10/23 06:19:34;;;;;;;0.70;0.70;;;;;;;7.87;100.00;99758.81;5072326;28;20032;-62
2023/10/23 06:21:59;;;;;;;0.70;0.70;;;;;;;7.91;100.00;99760.47;5069453;28;20100;-62
2023/10/23 06:24:26;;;;;;;0.70;0.70;;;;;;;8.00;100.00;99757.63;5086463;28;20112;-62
2023/10/23 06:26:51;;;;;;;0.70;0.70;;;;;;;8.04;100.00;99751.31;5088077;28;20034;-62
2023/10/23 06:29:16;;;;;;;0.60;0.60;;;;;;;8.12;100.00;99747.59;5087859;28;20044;-62
2023/10/23 06:31:42;;;;;;;0.80;0.80;;;;;;;8.16;100.00;99746.56;5077428;28;20036;-62
2023/10/23 06:34:07;;;;;;;0.70;0.70;;;;;;;8.18;100.00;99745.66;5051525;28;20074;-62
2023/10/23 06:36:33;;;;;;;0.70;0.70;;;;;;;8.14;100.00;99746.63;5072988;28;20028;-62
2023/10/23 06:38:58;;;;;;;0.70;0.70;;;;;;;8.16;100.00;99747.47;5077051;28;20111;-62
2023/10/23 06:41:24;;;;;;;0.70;0.70;;;;;;;8.24;100.00;99752.59;5069240;28;20484;-62
2023/10/23 06:43:49;;;;;;;0.80;0.80;;;;;;;8.29;100.00;99758.59;5069614;28;20736;-62
2023/10/23 06:46:15;;;;;;;0.80;0.80;;;;;;;8.31;100.00;99764.75;5071848;28;20039;-62
2023/10/23 06:48:44;;;;;;;0.70;0.70;;;;;;;8.36;100.00;99746.94;5069126;28;20527;-62
2023/10/23 06:51:10;;;;;;;0.77;0.77;;;;;;;8.49;100.00;99753.63;5086732;28;20531;-61
2023/10/23 06:53:36;;;;;;;0.80;0.80;;;;;;;8.58;100.00;99750.72;5070493;28;20074;-62
2023/10/23 06:56:02;;;;;;;0.70;0.70;;;;;;;8.66;100.00;99764.63;5085324;28;20055;-62
2023/10/23 06:58:28;;;;;;;0.70;0.70;;;;;;;8.72;100.00;99760.03;5088365;28;20103;-61
2023/10/23 07:00:53;;;;;;;0.70;0.70;;;;;;;8.78;100.00;99757.19;5087554;28;20102;-62
2023/10/23 07:03:19;;;;;;;0.70;0.70;;;;;;;8.86;100.00;99749.84;5088934;28;20368;-62
2023/10/23 07:05:45;;;;;;;0.70;0.70;;;;;;;8.89;100.00;99744.50;5075764;28;20024;-61
2023/10/23 07:08:11;;;;;;;0.70;0.70;;;;;;;9.01;100.00;99751.22;5069448;28;20538;-62
2023/10/23 07:10:38;;;;;;;0.70;0.70;;;;;;;9.11;100.00;99742.03;5069100;28;20028;-61
2023/10/23 07:13:04;;;;;;;0.70;0.70;;;;;;;9.27;100.00;99753.91;5069046;28;20067;-62
2023/10/23 07:15:34;;;;;;;0.70;0.70;;;;;;;9.33;100.00;99751.94;5087136;28;20047;-62
2023/10/23 07:17:59;;;;;;;0.70;0.70;;;;;;;9.39;100.00;99761.47;5089439;28;20035;-62
2023/10/23 07:20:25;;;;;;;0.70;0.70;;;;;;;9.45;100.00;99761.28;5089049;28;20035;-62
2023/10/23 07:22:50;;;;;;;0.70;0.70;;;;;;;9.48;100.00;99744.38;5087392;28;20085;-62
2023/10/23 07:25:15;;;;;;;0.70;0.70;;;;;;;9.56;100.00;99745.00;5072978;28;20391;-62
2023/10/23 07:27:41;;;;;;;0.70;0.70;;;;;;;9.68;100.00;99737.50;5089176;28;20034;-62
2023/10/23 07:30:07;;;;;;;0.70;0.70;;;;;;;9.70;100.00;99733.03;5083808;28;20111;-63
2023/10/23 07:32:34;;;;;;;0.70;0.70;;;;;;;9.73;100.00;99738.22;5093484;28;20444;-62
2023/10/23 07:35:00;;;;;;;0.60;0.60;;;;;;;9.78;100.00;99738.94;5087913;28;20073;-63
2023/10/23 07:37:27;;;;;;;0.70;0.70;;;;;;;9.78;100.00;99728.31;5073138;28;20460;-63
2023/10/23 07:39:52;;;;;;;0.70;0.70;;;;;;;9.88;100.00;99719.13;5072504;28;20749;-63
2023/10/23 07:42:18;;;;;;;0.68;0.68;;;;;;;9.92;100.00;99720.72;5075305;28;20108;-63
2023/10/23 07:44:44;;;;;;;0.70;0.70;;;;;;;10.04;100.00;99720.31;5084324;28;20036;-64
2023/10/23 07:47:09;;;;;;;0.65;0.65;;;;;;;10.12;100.00;99707.66;5086169;28;20039;-64
2023/10/23 07:49:35;;;;;;;0.60;0.60;;;;;;;10.15;100.00;99701.34;5071208;28;20036;-63
2023/10/23 07:52:00;;;;;;;0.70;0.70;;;;;;;10.27;100.00;99700.91;5071535;28;20522;-63
2023/10/23 07:54:26;;;;;;;0.60;0.60;;;;;;;10.33;100.00;99703.34;5089968;28;20039;-63
2023/10/23 07:56:55;;;;;;;0.60;0.60;;;;;;;10.44;100.00;99704.69;5087138;28;20498;-63
2023/10/23 07:59:21;;;;;;;0.60;0.60;;;;;;;10.49;100.00;99713.34;5091518;28;20081;-63
2023/10/23 08:01:47;;;;;;;0.60;0.60;;;;;;;10.58;100.00;99712.16;5079473;28;20462;-63
2023/10/23 08:04:13;;;;;;;0.60;0.60;;;;;;;10.61;100.00;99717.34;5072007;28;20021;-63
2023/10/23 08:06:38;;;;;;;0.60;0.60;;;;;;;10.75;100.00;99712.38;5072948;28;20130;-63
2023/10/23 08:09:06;;;;;;;0.60;0.60;;;;;;;10.83;100.00;99714.75;5092414;28;20027;-63
2023/10/23 08:11:31;;;;;;;0.60;0.60;;;;;;;10.88;100.00;99726.06;5092429;28;20078;-63
2023/10/23 08:13:58;;;;;;;0.60;0.60;;;;;;;10.88;100.00;99721.63;5088877;28;20067;-63
2023/10/23 08:16:23;;;;;;;0.60;0.60;;;;;;;10.91;100.00;99720.63;5092415;28;20024;-63
2023/10/23 08:18:49;;;;;;;0.52;0.52;;;;;;;10.96;100.00;99716.00;5092202;28;20027;-64
2023/10/23 08:21:15;;;;;;;0.50;0.50;;;;;;;10.98;100.00;99722.13;5091779;28;20016;-63
2023/10/23 08:23:56;;;;;;;0.60;0.60;;;;;;;11.05;100.00;99713.00;5089542;28;20046;-63
2023/10/23 08:26:22;;;;;;;0.60;0.60;;;;;;;11.12;100.00;99711.84;5091868;28;20483;-63
2023/10/23 08:28:48;;;;;;;0.60;0.60;;;;;;;11.21;100.00;99720.31;5092023;28;20067;-63
2023/10/23 08:31:13;;;;;;;0.60;0.60;;;;;;;11.31;100.00;99715.47;5089099;28;20120;-63
2023/10/23 08:33:39;;;;;;;0.50;0.50;;;;;;;11.35;100.00;99707.31;5071965;28;20387;-63
2023/10/23 08:36:04;;;;;;;0.50;0.50;;;;;;;11.41;100.00;99707.06;5071609;28;20032;-63
2023/10/23 08:38:30;;;;;;;0.50;0.50;;;;;;;11.44;100.00;99714.06;5073982;28;20462;-63
2023/10/23 08:40:55;;;;;;;0.50;0.50;;;;;;;11.51;100.00;99713.75;5070350;28;20031;-63
2023/10/23 08:43:23;;;;;;;0.50;0.50;;;;;;;11.57;100.00;99718.81;5074192;28;20480;-62
2023/10/23 08:45:53;;;;;;;0.50;0.50;;;;;;;11.57;100.00;99721.50;5087009;28;20027;-63
2023/10/23 08:48:18;;;;;;;0.50;0.50;;;;;;;11.61;100.00;99719.56;5090540;28;20666;-63
2023/10/23 08:50:46;;;;;;;0.50;0.50;;;;;;;11.59;100.00;99732.06;5090460;28;20213;-63
2023/10/23 08:53:14;;;;;;;0.50;0.50;;;;;;;11.61;100.00;99727.56;5086208;28;20059;-63
2023/10/23 08:55:41;;;;;;;0.50;0.50;;;;;;;11.66;100.00;99733.59;5090345;28;20062;-63
2023/10/23 08:58:07;;;;;;;0.50;0.50;;;;;;;11.74;100.00;99726.16;5090503;28;20368;-63
2023/10/23 09:00:33;;;;;;;0.57;0.57;;;;;;;11.71;100.00;99727.13;5090938;28;20089;-63
2023/10/23 09:03:00;;;;;;;0.50;0.50;;;;;;;11.79;100.00;99734.81;5082616;28;20036;-63
2023/10/23 09:05:25;;;;;;;0.50;0.50;;;;;;;11.86;100.00;99733.63;5088287;28;20230;-63
2023/10/23 09:07:51;;;;;;;0.50;0.50;;;;;;;11.98;100.00;99751.75;5070223;28;20568;-63
2023/10/23 09:10:16;;;;;;;0.60;0.60;;;;;;;11.97;100.00;99749.16;5090899;28;20032;-63
2023/10/23 09:12:43;;;;;;;0.50;0.50;;;;;;;11.94;100.00;99744.84;5091000;28;20177;-63
2023/10/23 09:15:21;;;;;;;0.50;0.50;;;;;;;11.97;100.00;99742.03;5083843;28;20028;-63
2023/10/23 09:17:48;;;;;;;0.50;0.50;;;;;;;12.00;100.00;99739.25;5070745;28;20033;-63
2023/10/23 09:20:16;;;;;;;0.50;0.50;;;;;;;12.08;100.00;99726.44;5070823;28;20422;-62
2023/10/23 09:22:47;;;;;;;0.50;0.50;;;;;;;12.10;100.00;99723.72;5074954;28;20028;-62
2023/10/23 09:25:16;;;;;;;0.50;0.50;;;;;;;12.03;100.00;99723.09;5077676;28;20028;-62
2023/10/23 09:27:42;;;;;;;0.60;0.60;;;;;;;12.06;100.00;99725.63;5079486;28;20361;-63
2023/10/23 09:30:10;;;;;;;0.50;0.50;;;;;;;12.14;100.00;99725.31;5084901;28;20705;-63
2023/10/23 09:32:36;;;;;;;0.50;0.50;;;;;;;12.22;100.00;99732.06;5074712;28;20428;-63
2023/10/23 09:35:04;;;;;;;0.50;0.50;;;;;;;12.17;100.00;99742.06;5090835;28;20024;-63
2023/10/23 09:37:30;;;;;;;0.50;0.50;;;;;;;12.15;100.00;99727.91;5081100;28;20063;-63
2023/10/23 09:39:59;;;;;;;0.50;0.50;;;;;;;12.16;100.00;99724.31;5069974;28;20464;-63
2023/10/23 09:42:34;;;;;;;0.50;0.50;;;;;;;12.18;100.00;99727.78;5069004;28;20027;-63
2023/10/23 09:45:01;;;;;;;0.50;0.50;;;;;;;12.10;100.00;99729.91;5077310;28;20047;-63
2023/10/23 09:47:28;;;;;;;0.50;0.50;;;;;;;12.08;100.00;99726.44;5089705;28;20031;-63
2023/10/23 09:49:54;;;;;;;0.50;0.50;;;;;;;12.11;100.00;99723.63;5085465;28;20098;-63
2023/10/23 09:52:23;;;;;;;0.50;0.50;;;;;;;12.07;100.00;99719.38;5078023;28;20486;-62
2023/10/23 09:54:50;;;;;;;0.50;0.50;;;;;;;12.11;100.00;99718.31;5090038;28;20077;-61
2023/10/23 09:57:18;;;;;;;0.50;0.50;;;;;;;12.12;100.00;99716.50;5090725;28;20384;-61
2023/10/23 09:59:52;;;;;;;0.50;0.50;;;;;;;12.16;100.00;99713.63;5090124;28;20016;-62
2023/10/23 10:02:20;;;;;;;0.50;0.50;;;;;;;12.19;100.00;99718.00;5084183;28;20067;-62
2023/10/23 10:04:56;;;;;;;0.50;0.50;;;;;;;12.23;100.00;99720.44;5090285;28;20057;-61
2023/10/23 10:07:27;;;;;;;0.50;0.50;;;;;;;12.28;100.00;99707.78;5090105;28;20034;-62
2023/10/23 10:09:54;;;;;;;0.60;0.60;;;;;;;12.31;100.00;99701.44;5090171;28;20481;-61
2023/10/23 10:12:21;;;;;;;0.50;0.50;;;;;;;12.36;100.00;99689.63;5074650;28;20052;-61
2023/10/23 10:14:54;;;;;;;0.50;0.50;;;;;;;12.50;100.00;99681.00;5127594;27;20124;-62
2023/10/23 10:17:20;;;;;;;0.50;0.50;;;;;;;12.60;100.00;99675.16;5120733;28;20499;-62
2023/10/23 10:19:46;;;;;;;0.50;0.50;;;;;;;12.75;100.00;99668.28;5106926;28;20035;-62
2023/10/23 10:22:34;;;;;;;0.50;0.50;;;;;;;12.84;100.00;99674.03;5088193;28;20031;-61
2023/10/23 10:25:00;;;;;;;0.50;0.50;;;;;;;12.98;100.00;99652.88;5127181;28;20051;-61
2023/10/23 10:27:26;;;;;;;0.50;0.50;;;;;;;13.03;100.00;99650.88;5113677;28;20059;-61
2023/10/23 10:29:51;;;;;;;0.50;0.50;;;;;;;13.09;99.83;99645.28;5088248;28;20400;-61
2023/10/23 10:32:17;;;;;;;0.47;0.47;;;;;;;13.20;100.00;99648.28;5108344;28;20096;-61
2023/10/23 10:34:46;;;;;;;0.50;0.50;;;;;;;13.38;100.00;99637.63;5106310;28;20028;-62
2023/10/23 10:37:11;;;;;;;0.40;0.40;;;;;;;13.55;99.74;99629.63;5111437;28;20041;-61
2023/10/23 10:39:46;;;;;;;0.50;0.50;;;;;;;13.65;99.42;99607.69;5105054;28;20028;-61
2023/10/23 10:42:19;;;;;;;0.50;0.50;;;;;;;13.77;98.77;99591.00;5104685;28;20043;-61
2023/10/23 10:45:06;;;;;;;0.40;0.40;;;;;;;13.87;98.82;99588.75;5107145;28;20085;-61
2023/10/23 10:47:38;;;;;;;0.50;0.50;;;;;;;13.74;97.72;99576.97;5104888;28;20809;-61
2023/10/23 10:50:04;;;;;;;0.40;0.40;;;;;;;13.74;97.50;99566.28;5106927;28;20024;-61
2023/10/23 10:52:33;;;;;;;0.40;0.40;;;;;;;13.70;96.77;99562.88;5107277;28;20064;-61
2023/10/23 10:55:08;;;;;;;0.38;0.38;;;;;;;13.70;96.78;99572.72;5125717;28;20680;-61
2023/10/23 10:57:39;;;;;;;0.40;0.40;;;;;;;13.72;97.61;99568.16;5126034;28;20035;-62
2023/10/23 11:00:05;;;;;;;0.40;0.40;;;;;;;13.77;97.78;99550.06;5121718;28;20454;-61
2023/10/23 11:02:31;;;;;;;0.40;0.40;;;;;;;13.83;96.76;99553.28;5112369;28;20032;-61
2023/10/23 11:04:56;;;;;;;0.40;0.40;;;;;;;13.86;96.56;99552.22;5106274;28;20514;-63
2023/10/23 11:07:24;;;;;;;0.40;0.40;;;;;;;13.85;96.87;99564.75;5109374;28;20031;-62
2023/10/23 11:09:50;;;;;;;0.40;0.40;;;;;;;13.76;96.26;99567.91;5087742;28;20020;-62
2023/10/23 11:12:19;;;;;;;0.40;0.40;;;;;;;13.69;97.07;99587.03;5105825;28;20028;-62
2023/10/23 11:14:48;;;;;;;0.40;0.40;;;;;;;13.57;97.01;99599.22;5099437;28;20055;-62
2023/10/23 11:17:14;;;;;;;0.40;0.40;;;;;;;13.54;97.40;99603.84;5093170;28;20593;-62
2023/10/23 11:19:41;;;;;;;0.40;0.40;;;;;;;13.52;97.68;99601.25;5092685;28;20032;-62
2023/10/23 11:22:14;;;;;;;0.40;0.40;;;;;;;13.56;98.05;99593.94;5105779;28;20164;-62
2023/10/23 11:24:40;;;;;;;0.50;0.50;;;;;;;13.34;98.49;99570.13;5080805;28;20081;-62
2023/10/23 11:27:07;;;;;;;0.40;0.40;;;;;;;13.32;98.77;99603.19;5071399;28;20040;-62